Time;durP1;ratioP1;P1;durP2;ratioP2;P2;SDS_P1;SDS_P2;PMS_P1;PMS_P2;Temp;Humidity;BMP_temperature;BMP_pressure;BME280_temperature;BME280_humidity;BME280_pressure;Samples;Min_cycle;Max_cycle;Signal;HPM_P1;HPM_P2
2021/04/03 00:01:28;;;;;;;6.40;3.75;;;;;;;;;;5077471;28;20045;-78
2021/04/03 00:03:54;;;;;;;6.13;3.75;;;;;;;;;;5089015;28;20083;-77
2021/04/03 00:06:20;;;;;;;7.22;3.78;;;;;;;;;;5082580;28;20479;-78
2021/04/03 00:08:46;;;;;;;6.00;3.58;;;;;;;;;;5073837;28;20045;-78
2021/04/03 00:11:13;;;;;;;5.78;3.63;;;;;;;;;;5080473;28;20036;-78
2021/04/03 00:13:43;;;;;;;5.53;3.60;;;;;;;;;;5081775;28;20403;-78
2021/04/03 00:16:10;;;;;;;7.93;4.13;;;;;;;;;;5086489;28;20070;-78
2021/04/03 00:18:36;;;;;;;6.28;3.90;;;;;;;;;;5081930;28;20122;-78
2021/04/03 00:21:02;;;;;;;5.85;3.63;;;;;;;;;;5089047;28;20052;-78
2021/04/03 00:23:28;;;;;;;8.15;5.00;;;;;;;;;;5085719;28;20707;-77
2021/04/03 00:25:54;;;;;;;7.22;4.70;;;;;;;;;;5088013;28;20044;-78
2021/04/03 00:28:21;;;;;;;12.02;6.45;;;;;;;;;;5089031;28;20055;-78
2021/04/03 00:30:47;;;;;;;11.52;6.40;;;;;;;;;;5083560;28;20040;-77
2021/04/03 00:33:13;;;;;;;9.65;5.63;;;;;;;;;;5089937;28;20511;-79
2021/04/03 00:35:41;;;;;;;10.63;6.45;;;;;;;;;;5087840;28;20495;-77
2021/04/03 00:38:09;;;;;;;10.05;5.75;;;;;;;;;;5088200;28;20051;-77
2021/04/03 00:40:37;;;;;;;10.35;6.25;;;;;;;;;;5086407;28;20051;-77
2021/04/03 00:43:05;;;;;;;9.55;6.00;;;;;;;;;;5083788;28;20048;-77
2021/04/03 00:45:32;;;;;;;10.80;5.90;;;;;;;;;;5079321;28;20097;-78
2021/04/03 00:47:58;;;;;;;9.18;5.55;;;;;;;;;;5078010;28;20045;-78
2021/04/03 00:50:27;;;;;;;10.23;5.80;;;;;;;;;;5084473;28;20048;-78
2021/04/03 00:52:53;;;;;;;10.13;5.78;;;;;;;;;;5079435;28;20381;-78
2021/04/03 00:55:19;;;;;;;9.98;6.13;;;;;;;;;;5079320;28;20055;-77
2021/04/03 00:57:47;;;;;;;10.27;6.13;;;;;;;;;;5083434;28;20067;-78
2021/04/03 01:00:17;;;;;;;11.25;5.90;;;;;;;;;;5080912;28;20083;-78
2021/04/03 01:02:44;;;;;;;12.10;6.43;;;;;;;;;;5100012;22;20497;-66
2021/04/03 01:05:13;;;;;;;12.07;6.05;;;;;;;;;;5076901;28;20062;-66
2021/04/03 01:07:39;;;;;;;11.90;6.20;;;;;;;;;;5087737;28;20051;-66
2021/04/03 01:10:06;;;;;;;9.18;5.47;;;;;;;;;;5082612;28;20127;-66
2021/04/03 01:12:44;;;;;;;8.43;5.43;;;;;;;;;;5081188;28;20040;-66
2021/04/03 01:15:16;;;;;;;10.52;5.45;;;;;;;;;;5084151;28;20071;-66
2021/04/03 01:17:57;;;;;;;13.40;5.32;;;;;;;;;;5079277;28;20040;-66
2021/04/03 01:20:32;;;;;;;8.23;4.95;;;;;;;;;;5078066;28;20485;-66
2021/04/03 01:23:20;;;;;;;12.75;5.25;;;;;;;;;;5077809;28;20048;-67
2021/04/03 01:25:56;;;;;;;11.00;5.10;;;;;;;;;;5077693;28;20060;-66
2021/04/03 01:28:44;;;;;;;9.20;4.60;;;;;;;;;;5075214;28;20086;-66
2021/04/03 01:31:11;;;;;;;16.35;5.40;;;;;;;;;;5084078;28;20102;-66
2021/04/03 01:33:39;;;;;;;9.48;4.72;;;;;;;;;;5069172;28;20040;-66
2021/04/03 01:36:11;;;;;;;9.65;4.47;;;;;;;;;;5078774;28;20062;-67
2021/04/03 01:38:38;;;;;;;7.35;4.32;;;;;;;;;;5077968;28;20048;-66
2021/04/03 01:41:04;;;;;;;9.02;5.03;;;;;;;;;;5082496;28;20044;-67
2021/04/03 01:43:41;;;;;;;9.57;4.80;;;;;;;;;;5077309;28;20512;-66
2021/04/03 01:46:07;;;;;;;10.45;5.28;;;;;;;;;;5078306;28;20055;-66
2021/04/03 01:48:36;;;;;;;7.78;4.05;;;;;;;;;;5084477;28;20054;-66
2021/04/03 01:51:03;;;;;;;13.15;5.65;;;;;;;;;;5083944;28;20385;-66
2021/04/03 01:53:29;;;;;;;11.40;4.13;;;;;;;;;;5081495;28;20143;-66
2021/04/03 01:55:56;;;;;;;12.02;4.38;;;;;;;;;;5069421;28;20755;-66
2021/04/03 01:58:22;;;;;;;8.55;4.90;;;;;;;;;;5075145;28;20109;-66
2021/04/03 02:00:48;;;;;;;13.98;5.22;;;;;;;;;;5080571;28;20044;-66
2021/04/03 02:03:14;;;;;;;8.40;4.68;;;;;;;;;;5078879;28;20477;-66
2021/04/03 02:05:41;;;;;;;8.55;4.18;;;;;;;;;;5083589;28;20377;-66
2021/04/03 02:08:08;;;;;;;10.10;4.97;;;;;;;;;;5081374;28;20049;-66
2021/04/03 02:10:34;;;;;;;7.95;3.90;;;;;;;;;;5074832;28;20044;-67
2021/04/03 02:13:02;;;;;;;6.82;3.42;;;;;;;;;;5077710;28;20499;-66
2021/04/03 02:15:28;;;;;;;9.90;3.88;;;;;;;;;;5081522;28;20052;-66
2021/04/03 02:17:56;;;;;;;7.35;3.90;;;;;;;;;;5071591;28;20059;-66
2021/04/03 02:20:22;;;;;;;10.73;4.43;;;;;;;;;;5074605;28;20064;-66
2021/04/03 02:22:49;;;;;;;9.57;4.07;;;;;;;;;;5080018;28;20064;-66
2021/04/03 02:25:16;;;;;;;6.45;4.03;;;;;;;;;;5080281;28;20048;-66
2021/04/03 02:27:44;;;;;;;10.20;5.07;;;;;;;;;;5080676;28;20040;-66
2021/04/03 02:30:12;;;;;;;7.35;3.72;;;;;;;;;;5070347;28;20140;-66
2021/04/03 02:32:40;;;;;;;11.38;3.88;;;;;;;;;;5075580;28;20062;-66
2021/04/03 02:35:08;;;;;;;7.22;3.95;;;;;;;;;;5081091;28;20047;-66
2021/04/03 02:37:34;;;;;;;7.85;3.60;;;;;;;;;;5079799;28;20410;-66
2021/04/03 02:40:01;;;;;;;7.63;3.60;;;;;;;;;;5072190;28;20067;-66
2021/04/03 02:42:28;;;;;;;11.43;4.00;;;;;;;;;;5078527;28;20568;-66
2021/04/03 02:44:58;;;;;;;8.77;4.10;;;;;;;;;;5081965;28;20044;-66
2021/04/03 02:47:28;;;;;;;10.07;3.90;;;;;;;;;;5077716;28;20072;-66
2021/04/03 02:49:59;;;;;;;7.88;3.45;;;;;;;;;;5074649;28;20044;-66
2021/04/03 02:52:27;;;;;;;7.15;3.80;;;;;;;;;;5076683;28;20052;-66
2021/04/03 02:54:53;;;;;;;6.38;3.50;;;;;;;;;;5081842;28;20037;-66
2021/04/03 02:57:21;;;;;;;11.25;4.00;;;;;;;;;;5081554;28;20420;-66
2021/04/03 02:59:50;;;;;;;10.85;4.15;;;;;;;;;;5073121;28;20109;-67
2021/04/03 03:02:19;;;;;;;7.78;3.65;;;;;;;;;;5079675;28;20369;-66
2021/04/03 03:04:46;;;;;;;6.95;3.85;;;;;;;;;;5081697;28;20051;-67
2021/04/03 03:07:13;;;;;;;8.30;3.83;;;;;;;;;;5080930;28;20040;-66
2021/04/03 03:09:41;;;;;;;7.15;3.33;;;;;;;;;;5072393;28;20409;-67
2021/04/03 03:12:09;;;;;;;6.47;3.70;;;;;;;;;;5077826;28;20135;-67
2021/04/03 03:14:37;;;;;;;10.52;4.00;;;;;;;;;;5080906;28;20040;-66
2021/04/03 03:17:04;;;;;;;11.20;5.85;;;;;;;;;;5079170;28;20044;-66
2021/04/03 03:19:31;;;;;;;8.98;3.95;;;;;;;;;;5083835;28;20053;-65
2021/04/03 03:21:57;;;;;;;9.52;4.93;;;;;;;;;;5078660;28;20136;-65
2021/04/03 03:24:23;;;;;;;8.75;4.10;;;;;;;;;;5073600;28;20476;-65
2021/04/03 03:26:50;;;;;;;8.27;4.25;;;;;;;;;;5076565;28;20048;-66
2021/04/03 03:29:16;;;;;;;10.13;4.80;;;;;;;;;;5078560;28;20052;-66
2021/04/03 03:31:43;;;;;;;7.90;3.80;;;;;;;;;;5083104;28;20113;-65
2021/04/03 03:34:10;;;;;;;10.32;5.03;;;;;;;;;;5080048;28;20427;-66
2021/04/03 03:36:36;;;;;;;10.40;4.18;;;;;;;;;;5078223;28;20639;-65
2021/04/03 03:39:04;;;;;;;8.68;4.18;;;;;;;;;;5078178;28;20045;-66
2021/04/03 03:41:30;;;;;;;6.35;3.47;;;;;;;;;;5079537;28;20048;-66
2021/04/03 03:43:57;;;;;;;7.43;3.60;;;;;;;;;;5077684;28;20384;-65
2021/04/03 03:46:23;;;;;;;8.10;3.63;;;;;;;;;;5074411;28;20044;-65
2021/04/03 03:48:49;;;;;;;10.45;3.90;;;;;;;;;;5079557;28;20048;-66
2021/04/03 03:51:15;;;;;;;7.10;3.38;;;;;;;;;;5083391;28;20047;-66
2021/04/03 03:53:41;;;;;;;8.27;3.47;;;;;;;;;;5082974;28;20052;-65
2021/04/03 03:56:07;;;;;;;6.13;3.50;;;;;;;;;;5071914;28;20044;-65
2021/04/03 03:58:33;;;;;;;7.63;3.30;;;;;;;;;;5076351;28;20044;-65
2021/04/03 04:00:59;;;;;;;8.18;3.53;;;;;;;;;;5079311;28;20137;-65
2021/04/03 04:03:25;;;;;;;7.15;3.50;;;;;;;;;;5081665;28;20480;-65
2021/04/03 04:05:52;;;;;;;15.68;4.82;;;;;;;;;;5075898;28;20055;-66
2021/04/03 04:08:19;;;;;;;8.35;3.72;;;;;;;;;;5077679;28;20105;-66
2021/04/03 04:10:45;;;;;;;7.60;4.20;;;;;;;;;;5077169;28;20064;-66
2021/04/03 04:13:11;;;;;;;9.38;4.38;;;;;;;;;;5080811;28;20056;-66
2021/04/03 04:15:37;;;;;;;8.63;3.92;;;;;;;;;;5081475;28;20040;-66
2021/04/03 04:18:03;;;;;;;6.70;3.63;;;;;;;;;;5081241;28;20135;-66
2021/04/03 04:20:30;;;;;;;9.88;4.05;;;;;;;;;;5083512;28;20044;-66
2021/04/03 04:22:56;;;;;;;6.78;3.38;;;;;;;;;;5078344;28;20130;-66
2021/04/03 04:25:22;;;;;;;10.20;4.72;;;;;;;;;;5077829;28;20049;-66
2021/04/03 04:27:49;;;;;;;7.22;4.00;;;;;;;;;;5078693;28;20056;-66
2021/04/03 04:30:15;;;;;;;9.05;3.80;;;;;;;;;;5080497;28;20523;-66
2021/04/03 04:32:43;;;;;;;7.40;3.85;;;;;;;;;;5078932;28;20049;-66
2021/04/03 04:35:11;;;;;;;6.93;4.03;;;;;;;;;;5076973;28;20534;-66
2021/04/03 04:37:38;;;;;;;8.82;4.53;;;;;;;;;;5075580;28;20070;-66
2021/04/03 04:40:06;;;;;;;9.70;4.18;;;;;;;;;;5084386;28;20052;-68
2021/04/03 04:42:32;;;;;;;6.88;3.67;;;;;;;;;;5079325;28;20051;-66
2021/04/03 04:44:59;;;;;;;11.73;3.95;;;;;;;;;;5079625;28;20097;-66
2021/04/03 04:47:25;;;;;;;10.35;4.38;;;;;;;;;;5080533;28;20447;-66
2021/04/03 04:49:51;;;;;;;7.30;3.55;;;;;;;;;;5084328;28;20056;-66
2021/04/03 04:52:17;;;;;;;8.32;4.00;;;;;;;;;;5077903;28;20036;-66
2021/04/03 04:54:43;;;;;;;7.65;4.57;;;;;;;;;;5076290;28;20551;-66
2021/04/03 04:57:10;;;;;;;9.60;3.95;;;;;;;;;;5081336;28;20076;-66
2021/04/03 04:59:36;;;;;;;6.60;4.03;;;;;;;;;;5083715;28;20044;-66
2021/04/03 05:02:02;;;;;;;7.20;3.28;;;;;;;;;;5082809;28;20147;-66
2021/04/03 05:04:28;;;;;;;8.25;3.80;;;;;;;;;;5076312;28;20132;-67
2021/04/03 05:06:54;;;;;;;9.25;4.63;;;;;;;;;;5080515;28;20056;-66
2021/04/03 05:09:20;;;;;;;6.63;4.47;;;;;;;;;;5082817;28;20101;-66
2021/04/03 05:11:46;;;;;;;6.45;4.13;;;;;;;;;;5082242;28;20111;-66
2021/04/03 05:14:13;;;;;;;7.88;4.10;;;;;;;;;;5079852;28;20044;-66
2021/04/03 05:16:40;;;;;;;8.07;3.95;;;;;;;;;;5074672;28;20044;-66
2021/04/03 05:19:06;;;;;;;9.98;4.22;;;;;;;;;;5079004;28;20044;-66
2021/04/03 05:21:32;;;;;;;8.23;3.88;;;;;;;;;;5086402;28;20070;-66
2021/04/03 05:23:58;;;;;;;9.10;4.35;;;;;;;;;;5074751;28;20481;-66
2021/04/03 05:26:24;;;;;;;10.02;4.38;;;;;;;;;;5073834;28;20078;-66
2021/04/03 05:28:50;;;;;;;9.63;4.50;;;;;;;;;;5080879;28;20079;-66
2021/04/03 05:31:20;;;;;;;6.75;3.38;;;;;;;;;;5081844;28;20055;-66
2021/04/03 05:33:46;;;;;;;7.45;4.43;;;;;;;;;;5084447;28;20052;-66
2021/04/03 05:36:12;;;;;;;7.05;4.03;;;;;;;;;;5077741;28;20073;-66
2021/04/03 05:38:38;;;;;;;8.55;3.92;;;;;;;;;;5081608;28;20048;-66
2021/04/03 05:41:04;;;;;;;11.30;4.53;;;;;;;;;;5085003;28;20051;-66
2021/04/03 05:43:31;;;;;;;7.47;3.92;;;;;;;;;;5085851;28;20536;-66
2021/04/03 05:45:58;;;;;;;11.82;4.32;;;;;;;;;;5080446;28;20041;-66
2021/04/03 05:48:25;;;;;;;9.02;4.32;;;;;;;;;;5075688;28;20105;-66
2021/04/03 05:50:53;;;;;;;8.05;4.82;;;;;;;;;;5077460;28;20500;-66
2021/04/03 05:53:19;;;;;;;6.47;4.00;;;;;;;;;;5078866;28;20056;-66
2021/04/03 05:55:45;;;;;;;8.73;4.38;;;;;;;;;;5080252;28;20041;-66
2021/04/03 05:58:11;;;;;;;8.90;4.30;;;;;;;;;;5082003;28;20054;-66
2021/04/03 06:00:37;;;;;;;9.30;3.88;;;;;;;;;;5079736;28;20055;-66
2021/04/03 06:03:03;;;;;;;8.07;3.70;;;;;;;;;;5082351;28;20492;-68
2021/04/03 06:05:31;;;;;;;8.25;3.90;;;;;;;;;;5084827;28;20054;-66
2021/04/03 06:07:57;;;;;;;7.53;4.00;;;;;;;;;;5082384;28;20507;-66
2021/04/03 06:10:23;;;;;;;10.52;3.95;;;;;;;;;;5081015;28;20043;-66
2021/04/03 06:12:50;;;;;;;9.35;4.22;;;;;;;;;;5072261;28;20427;-66
2021/04/03 06:15:17;;;;;;;9.57;3.92;;;;;;;;;;5079103;28;20040;-66
2021/04/03 06:17:45;;;;;;;11.63;4.63;;;;;;;;;;5083355;28;20050;-66
2021/04/03 06:20:11;;;;;;;9.02;4.25;;;;;;;;;;5080835;28;20063;-66
2021/04/03 06:22:56;;;;;;;9.02;3.95;;;;;;;;;;5074874;28;20048;-66
2021/04/03 06:25:22;;;;;;;10.52;4.32;;;;;;;;;;5077323;28;20101;-66
2021/04/03 06:27:48;;;;;;;8.02;3.55;;;;;;;;;;5083073;28;20040;-66
2021/04/03 06:30:30;;;;;;;9.25;5.40;;;;;;;;;;5081800;28;20054;-66
2021/04/03 06:33:12;;;;;;;6.68;4.07;;;;;;;;;;5073851;28;20052;-66
2021/04/03 06:35:38;;;;;;;8.68;3.90;;;;;;;;;;5078333;28;20048;-66
2021/04/03 06:38:18;;;;;;;7.28;3.90;;;;;;;;;;5081726;28;20047;-66
2021/04/03 06:40:44;;;;;;;8.27;3.60;;;;;;;;;;5081413;28;20088;-66
2021/04/03 06:43:14;;;;;;;6.60;4.20;;;;;;;;;;5077005;28;20053;-66
2021/04/03 06:45:40;;;;;;;11.23;4.32;;;;;;;;;;5078221;28;20075;-66
2021/04/03 06:48:08;;;;;;;5.20;3.63;;;;;;;;;;5079035;28;20101;-66
2021/04/03 06:50:36;;;;;;;9.07;4.32;;;;;;;;;;5082652;28;20052;-66
2021/04/03 06:53:05;;;;;;;5.28;3.75;;;;;;;;;;5080279;28;20075;-66
2021/04/03 06:55:32;;;;;;;6.88;4.15;;;;;;;;;;5073718;28;20169;-66
2021/04/03 06:58:00;;;;;;;7.63;4.30;;;;;;;;;;5078798;28;20073;-66
2021/04/03 07:00:30;;;;;;;7.65;4.03;;;;;;;;;;5083374;28;20055;-66
2021/04/03 07:02:57;;;;;;;8.00;4.05;;;;;;;;;;5081597;28;20152;-66
2021/04/03 07:05:25;;;;;;;9.52;3.92;;;;;;;;;;5080625;28;20408;-66
2021/04/03 07:07:51;;;;;;;37.90;6.25;;;;;;;;;;5080634;28;20560;-67
2021/04/03 07:10:18;;;;;;;11.65;5.03;;;;;;;;;;5071336;28;20052;-66
2021/04/03 07:12:45;;;;;;;10.60;4.55;;;;;;;;;;5078519;28;20041;-65
2021/04/03 07:15:12;;;;;;;5.57;4.03;;;;;;;;;;5081450;28;20067;-66
2021/04/03 07:17:40;;;;;;;15.43;4.40;;;;;;;;;;5081526;28;20040;-65
2021/04/03 07:20:12;;;;;;;9.27;4.28;;;;;;;;;;5078586;28;20056;-66
2021/04/03 07:22:39;;;;;;;13.68;6.93;;;;;;;;;;5074467;28;20053;-66
2021/04/03 07:25:07;;;;;;;11.68;5.22;;;;;;;;;;5079680;28;20052;-66
2021/04/03 07:27:36;;;;;;;9.15;4.00;;;;;;;;;;5084211;28;20048;-67
2021/04/03 07:30:04;;;;;;;8.82;3.88;;;;;;;;;;5072051;28;20087;-67
2021/04/03 07:32:31;;;;;;;7.70;4.10;;;;;;;;;;5079843;28;20094;-66
2021/04/03 07:34:57;;;;;;;9.88;4.53;;;;;;;;;;5080277;28;20473;-67
2021/04/03 07:37:34;;;;;;;7.20;3.55;;;;;;;;;;5079378;28;20059;-66
2021/04/03 07:40:00;;;;;;;6.05;3.55;;;;;;;;;;5077192;28;20052;-66
2021/04/03 07:42:35;;;;;;;6.95;4.32;;;;;;;;;;5074477;28;20060;-67
2021/04/03 07:45:01;;;;;;;5.57;3.83;;;;;;;;;;5077377;28;20400;-67
2021/04/03 07:47:28;;;;;;;6.28;3.95;;;;;;;;;;5079491;28;20087;-66
2021/04/03 07:49:54;;;;;;;7.10;3.75;;;;;;;;;;5075422;28;20059;-67
2021/04/03 07:52:54;;;;;;;6.30;3.42;;;;;;;;;;5078010;28;20048;-67
2021/04/03 07:55:30;;;;;;;8.18;3.47;;;;;;;;;;5070210;28;20040;-66
2021/04/03 07:58:23;;;;;;;8.23;3.60;;;;;;;;;;5073676;28;20056;-67
2021/04/03 08:00:50;;;;;;;6.75;3.58;;;;;;;;;;5078413;28;20097;-66
2021/04/03 08:03:20;;;;;;;6.30;3.88;;;;;;;;;;5073897;28;20059;-66
2021/04/03 08:05:48;;;;;;;11.95;5.72;;;;;;;;;;5076070;28;20056;-66
2021/04/03 08:08:15;;;;;;;7.95;3.95;;;;;;;;;;5077139;28;20460;-66
2021/04/03 08:10:41;;;;;;;10.50;4.05;;;;;;;;;;5080080;28;20047;-66
2021/04/03 08:13:07;;;;;;;7.22;3.97;;;;;;;;;;5080797;28;20475;-67
2021/04/03 08:15:34;;;;;;;9.55;4.25;;;;;;;;;;5082707;28;20036;-67
2021/04/03 08:18:00;;;;;;;7.10;3.83;;;;;;;;;;5071261;28;20040;-66
2021/04/03 08:20:26;;;;;;;9.30;3.80;;;;;;;;;;5080275;28;20143;-66
2021/04/03 08:23:00;;;;;;;9.15;4.07;;;;;;;;;;5082785;28;20049;-67
2021/04/03 08:25:26;;;;;;;9.13;4.53;;;;;;;;;;5081889;28;20055;-66
2021/04/03 08:27:52;;;;;;;7.40;4.35;;;;;;;;;;5075798;28;20055;-68
2021/04/03 08:30:28;;;;;;;7.03;3.90;;;;;;;;;;5073332;28;20131;-69
2021/04/03 08:33:05;;;;;;;7.90;3.85;;;;;;;;;;5074010;28;20503;-67
2021/04/03 08:35:32;;;;;;;18.67;5.00;;;;;;;;;;5067918;28;20044;-67
2021/04/03 08:38:22;;;;;;;7.55;3.80;;;;;;;;;;5071208;28;20059;-67
2021/04/03 08:40:50;;;;;;;7.10;3.80;;;;;;;;;;5072326;28;20040;-66
2021/04/03 08:43:18;;;;;;;6.15;4.13;;;;;;;;;;5073830;28;20416;-66
2021/04/03 08:45:44;;;;;;;6.68;4.13;;;;;;;;;;5072323;28;20110;-66
2021/04/03 08:48:11;;;;;;;7.55;3.30;;;;;;;;;;5070903;28;20140;-66
2021/04/03 08:50:38;;;;;;;7.57;3.47;;;;;;;;;;5067318;28;20045;-66
2021/04/03 08:53:05;;;;;;;5.72;3.47;;;;;;;;;;5077096;28;20048;-67
2021/04/03 08:55:31;;;;;;;6.97;3.67;;;;;;;;;;5075329;28;20048;-67
2021/04/03 08:57:58;;;;;;;8.77;3.90;;;;;;;;;;5071582;28;20050;-67
2021/04/03 09:00:25;;;;;;;7.53;3.38;;;;;;;;;;5077436;28;20036;-68
2021/04/03 09:02:52;;;;;;;5.32;2.70;;;;;;;;;;5084378;28;20040;-65
2021/04/03 09:05:19;;;;;;;7.85;3.60;;;;;;;;;;5079042;28;20576;-67
2021/04/03 09:07:46;;;;;;;6.18;3.42;;;;;;;;;;5080142;28;20057;-66
2021/04/03 09:10:14;;;;;;;8.30;3.10;;;;;;;;;;5082240;28;20071;-67
2021/04/03 09:12:41;;;;;;;7.47;3.50;;;;;;;;;;5074732;28;20044;-66
2021/04/03 09:15:08;;;;;;;10.65;3.55;;;;;;;;;;5075019;28;20040;-66
2021/04/03 09:17:35;;;;;;;6.85;3.40;;;;;;;;;;5073136;28;20040;-67
2021/04/03 09:20:07;;;;;;;10.38;3.90;;;;;;;;;;5077050;28;20044;-67
2021/04/03 09:22:37;;;;;;;5.20;3.47;;;;;;;;;;5077724;28;20048;-66
2021/04/03 09:25:08;;;;;;;6.93;3.40;;;;;;;;;;5075372;28;20044;-66
2021/04/03 09:27:34;;;;;;;6.65;3.63;;;;;;;;;;5076184;28;20048;-67
2021/04/03 09:30:05;;;;;;;6.55;3.67;;;;;;;;;;5077298;28;20399;-66
2021/04/03 09:32:40;;;;;;;7.10;3.58;;;;;;;;;;5073028;28;20064;-67
2021/04/03 09:35:07;;;;;;;6.55;3.50;;;;;;;;;;5079917;28;20045;-67
2021/04/03 09:37:33;;;;;;;6.35;3.63;;;;;;;;;;5076575;28;20090;-67
2021/04/03 09:39:59;;;;;;;5.38;3.13;;;;;;;;;;5081064;28;20073;-66
2021/04/03 09:42:29;;;;;;;7.57;3.75;;;;;;;;;;5078044;28;20102;-66
2021/04/03 09:44:56;;;;;;;7.50;3.63;;;;;;;;;;5083450;28;20095;-70
2021/04/03 09:47:22;;;;;;;5.03;3.20;;;;;;;;;;5072171;28;20060;-66
2021/04/03 09:49:49;;;;;;;8.38;3.40;;;;;;;;;;5081649;28;20044;-66
2021/04/03 09:52:16;;;;;;;6.50;2.78;;;;;;;;;;5078940;28;20401;-66
2021/04/03 09:54:42;;;;;;;10.48;3.70;;;;;;;;;;5080636;28;20544;-65
2021/04/03 09:57:09;;;;;;;5.28;3.33;;;;;;;;;;5080450;28;20048;-66
2021/04/03 09:59:36;;;;;;;5.18;3.13;;;;;;;;;;5072567;28;20559;-66
2021/04/03 10:02:03;;;;;;;5.15;2.67;;;;;;;;;;5078864;28;20055;-66
2021/04/03 10:04:31;;;;;;;5.88;2.78;;;;;;;;;;5075358;28;20123;-66
2021/04/03 10:06:57;;;;;;;5.93;2.97;;;;;;;;;;5075505;28;20052;-66
2021/04/03 10:09:23;;;;;;;4.22;3.03;;;;;;;;;;5074495;28;20052;-66
2021/04/03 10:11:49;;;;;;;4.57;2.65;;;;;;;;;;5074303;28;20170;-66
2021/04/03 10:14:15;;;;;;;4.05;2.45;;;;;;;;;;5083641;28;20049;-65
2021/04/03 10:16:42;;;;;;;3.83;2.60;;;;;;;;;;5070638;28;20049;-66
2021/04/03 10:19:08;;;;;;;5.38;2.40;;;;;;;;;;5077759;28;20040;-66
2021/04/03 10:21:35;;;;;;;4.68;2.47;;;;;;;;;;5078299;28;20060;-65
2021/04/03 10:24:01;;;;;;;5.75;2.70;;;;;;;;;;5078890;28;20052;-65
2021/04/03 10:26:28;;;;;;;5.75;2.78;;;;;;;;;;5080389;28;20052;-65
2021/04/03 10:28:54;;;;;;;4.45;2.72;;;;;;;;;;5077617;28;20486;-65
2021/04/03 10:31:20;;;;;;;8.93;2.88;;;;;;;;;;5075093;28;20048;-65
2021/04/03 10:33:47;;;;;;;5.15;2.75;;;;;;;;;;5072503;28;20048;-66
2021/04/03 10:36:15;;;;;;;4.05;2.10;;;;;;;;;;5076956;28;20546;-65
2021/04/03 10:38:43;;;;;;;6.95;2.10;;;;;;;;;;5074843;28;20056;-65
2021/04/03 10:41:09;;;;;;;6.93;2.50;;;;;;;;;;5072734;28;20052;-65
2021/04/03 10:43:35;;;;;;;5.45;2.40;;;;;;;;;;5080441;28;20069;-66
2021/04/03 10:46:01;;;;;;;5.80;2.08;;;;;;;;;;5080448;28;20044;-66
2021/04/03 10:48:27;;;;;;;6.55;2.33;;;;;;;;;;5073418;28;20053;-66
2021/04/03 10:50:54;;;;;;;6.03;2.70;;;;;;;;;;5068895;28;20401;-65
2021/04/03 10:53:20;;;;;;;3.92;2.25;;;;;;;;;;5068443;28;20070;-66
2021/04/03 10:55:46;;;;;;;5.88;2.50;;;;;;;;;;5076641;28;20052;-67
2021/04/03 10:58:12;;;;;;;5.28;2.50;;;;;;;;;;5072660;28;20522;-67
2021/04/03 11:00:38;;;;;;;6.70;2.90;;;;;;;;;;5075009;28;20106;-66
2021/04/03 11:03:05;;;;;;;5.60;2.70;;;;;;;;;;5080770;28;20044;-67
2021/04/03 11:05:31;;;;;;;5.00;2.58;;;;;;;;;;5080589;28;20052;-65
2021/04/03 11:07:58;;;;;;;4.57;2.67;;;;;;;;;;5077647;28;20055;-68
2021/04/03 11:10:25;;;;;;;6.47;2.55;;;;;;;;;;5075609;28;20089;-66
2021/04/03 11:12:51;;;;;;;5.28;2.70;;;;;;;;;;5079994;28;20048;-67
2021/04/03 11:15:17;;;;;;;5.90;2.85;;;;;;;;;;5076791;28;20055;-67
2021/04/03 11:17:43;;;;;;;7.13;3.03;;;;;;;;;;5082252;28;20093;-67
2021/04/03 11:20:11;;;;;;;5.20;2.35;;;;;;;;;;5074093;28;20504;-65
2021/04/03 11:22:37;;;;;;;4.38;2.63;;;;;;;;;;5072274;28;20052;-67
2021/04/03 11:25:05;;;;;;;5.70;1.95;;;;;;;;;;5075427;28;20047;-68
2021/04/03 11:27:31;;;;;;;4.15;2.20;;;;;;;;;;5074251;28;20205;-66
2021/04/03 11:29:57;;;;;;;6.88;2.30;;;;;;;;;;5072935;28;20048;-67
2021/04/03 11:32:23;;;;;;;5.68;2.53;;;;;;;;;;5071016;28;20094;-67
2021/04/03 11:34:50;;;;;;;5.13;2.58;;;;;;;;;;5067805;28;20127;-66
2021/04/03 11:37:16;;;;;;;5.00;2.42;;;;;;;;;;5066128;28;20135;-67
2021/04/03 11:39:44;;;;;;;4.35;2.33;;;;;;;;;;5069688;28;20106;-67
2021/04/03 11:42:10;;;;;;;5.32;2.45;;;;;;;;;;5077315;28;20048;-67
2021/04/03 11:44:36;;;;;;;7.05;2.97;;;;;;;;;;5079371;28;20050;-66
2021/04/03 11:47:03;;;;;;;5.00;2.70;;;;;;;;;;5075538;28;20040;-67
2021/04/03 11:49:29;;;;;;;4.43;2.00;;;;;;;;;;5078694;28;20075;-67
2021/04/03 11:51:55;;;;;;;6.28;2.00;;;;;;;;;;5082185;28;20408;-67
2021/04/03 11:54:21;;;;;;;8.60;3.35;;;;;;;;;;5084769;28;20056;-67
2021/04/03 11:56:47;;;;;;;5.78;2.70;;;;;;;;;;5085819;28;20058;-67
2021/04/03 11:59:14;;;;;;;4.75;2.30;;;;;;;;;;5083964;28;20048;-67
2021/04/03 12:01:40;;;;;;;7.40;2.55;;;;;;;;;;5075544;28;20059;-67
2021/04/03 12:04:06;;;;;;;4.72;2.17;;;;;;;;;;5084121;28;20516;-66
2021/04/03 12:06:32;;;;;;;5.80;2.65;;;;;;;;;;5087972;28;20048;-67
2021/04/03 12:08:58;;;;;;;4.35;2.28;;;;;;;;;;5082284;28;20048;-67
2021/04/03 12:11:24;;;;;;;6.07;2.30;;;;;;;;;;5074441;28;20147;-66
2021/04/03 12:13:50;;;;;;;6.28;2.25;;;;;;;;;;5080561;28;20068;-67
2021/04/03 12:16:17;;;;;;;7.80;2.50;;;;;;;;;;5087711;28;20537;-67
2021/04/03 12:18:43;;;;;;;5.50;2.60;;;;;;;;;;5085431;28;20097;-67
2021/04/03 12:21:09;;;;;;;5.15;2.60;;;;;;;;;;5078900;28;20056;-67
2021/04/03 12:23:35;;;;;;;5.72;3.05;;;;;;;;;;5077085;28;20044;-67
2021/04/03 12:26:01;;;;;;;7.05;2.92;;;;;;;;;;5085015;28;20501;-67
2021/04/03 12:28:27;;;;;;;3.85;2.60;;;;;;;;;;5083189;28;20066;-66
2021/04/03 12:30:53;;;;;;;8.77;2.83;;;;;;;;;;5078625;28;20061;-67
2021/04/03 12:33:20;;;;;;;5.45;2.70;;;;;;;;;;5074563;28;20068;-67
2021/04/03 12:35:46;;;;;;;5.53;2.22;;;;;;;;;;5084414;28;20044;-66
2021/04/03 12:38:12;;;;;;;6.43;2.35;;;;;;;;;;5085267;28;20074;-66
2021/04/03 12:40:38;;;;;;;4.20;1.92;;;;;;;;;;5081099;28;20075;-66
2021/04/03 12:43:04;;;;;;;7.93;2.78;;;;;;;;;;5081228;28;20135;-66
2021/04/03 12:45:30;;;;;;;8.02;2.53;;;;;;;;;;5082200;28;20125;-66
2021/04/03 12:47:56;;;;;;;5.43;2.80;;;;;;;;;;5083240;28;20102;-66
2021/04/03 12:50:23;;;;;;;5.65;2.50;;;;;;;;;;5086996;28;20063;-66
2021/04/03 12:52:49;;;;;;;4.78;2.67;;;;;;;;;;5084579;28;20053;-66
2021/04/03 12:55:15;;;;;;;4.63;2.03;;;;;;;;;;5076409;28;20434;-66
2021/04/03 12:57:41;;;;;;;8.32;3.13;;;;;;;;;;5074894;28;20045;-67
2021/04/03 13:00:08;;;;;;;5.97;2.67;;;;;;;;;;5075774;28;20580;-66
2021/04/03 13:02:34;;;;;;;4.75;2.42;;;;;;;;;;5075398;28;20462;-67
2021/04/03 13:05:00;;;;;;;4.95;2.20;;;;;;;;;;5077293;28;20083;-66
2021/04/03 13:07:27;;;;;;;5.13;2.60;;;;;;;;;;5078564;28;20460;-66
2021/04/03 13:09:53;;;;;;;6.13;2.60;;;;;;;;;;5080792;28;20405;-66
2021/04/03 13:12:19;;;;;;;7.20;2.83;;;;;;;;;;5084858;28;20083;-66
2021/04/03 13:14:46;;;;;;;6.75;2.00;;;;;;;;;;5081502;28;20048;-66
2021/04/03 13:17:12;;;;;;;5.63;2.35;;;;;;;;;;5082247;28;20054;-66
2021/04/03 13:19:38;;;;;;;4.70;2.35;;;;;;;;;;5083609;28;20052;-66
2021/04/03 13:22:05;;;;;;;5.53;2.20;;;;;;;;;;5083774;28;20125;-66
2021/04/03 13:24:32;;;;;;;5.68;2.72;;;;;;;;;;5083806;28;20962;-66
2021/04/03 13:26:58;;;;;;;7.10;2.30;;;;;;;;;;5076243;28;20090;-66
2021/04/03 13:29:23;;;;;;;3.67;1.77;;;;;;;;;;5083677;28;20611;-66
2021/04/03 13:31:49;;;;;;;5.20;2.00;;;;;;;;;;5083849;28;20083;-66
2021/04/03 13:34:15;;;;;;;6.43;2.58;;;;;;;;;;5085516;28;20105;-67
2021/04/03 13:36:41;;;;;;;5.85;3.17;;;;;;;;;;5080007;28;20576;-66
2021/04/03 13:39:07;;;;;;;5.20;1.90;;;;;;;;;;5084405;28;20052;-66
2021/04/03 13:41:34;;;;;;;7.90;3.13;;;;;;;;;;5083867;28;20083;-66
2021/04/03 13:44:00;;;;;;;6.55;2.53;;;;;;;;;;5082040;28;20113;-67
2021/04/03 13:46:27;;;;;;;7.55;3.38;;;;;;;;;;5072742;28;20450;-66
2021/04/03 13:48:53;;;;;;;4.05;1.92;;;;;;;;;;5070678;28;20052;-66
2021/04/03 13:51:19;;;;;;;7.13;2.40;;;;;;;;;;5077207;28;20056;-66
2021/04/03 13:53:44;;;;;;;5.72;2.53;;;;;;;;;;5079918;28;20044;-66
2021/04/03 13:56:10;;;;;;;5.22;2.60;;;;;;;;;;5080619;28;20949;-66
2021/04/03 13:58:37;;;;;;;4.88;2.50;;;;;;;;;;5075202;28;20131;-66
2021/04/03 14:01:03;;;;;;;14.38;7.93;;;;;;;;;;5078974;28;21278;-66
2021/04/03 14:03:30;;;;;;;7.53;3.20;;;;;;;;;;5076825;28;20480;-66
2021/04/03 14:05:56;;;;;;;5.75;2.97;;;;;;;;;;5079388;28;20044;-66
2021/04/03 14:08:22;;;;;;;5.95;2.95;;;;;;;;;;5072132;28;20069;-66
2021/04/03 14:10:48;;;;;;;7.65;3.53;;;;;;;;;;5078725;28;20060;-66
2021/04/03 14:13:14;;;;;;;8.40;3.78;;;;;;;;;;5080453;28;20048;-66
2021/04/03 14:15:41;;;;;;;9.13;2.95;;;;;;;;;;5080674;28;20048;-66
2021/04/03 14:18:07;;;;;;;6.40;2.85;;;;;;;;;;5083221;28;20045;-66
2021/04/03 14:20:33;;;;;;;12.07;4.07;;;;;;;;;;5080299;28;20058;-66
2021/04/03 14:22:59;;;;;;;6.68;2.50;;;;;;;;;;5082960;28;20488;-66
2021/04/03 14:25:25;;;;;;;5.57;2.60;;;;;;;;;;5083222;28;20052;-66
2021/04/03 14:27:51;;;;;;;6.32;2.33;;;;;;;;;;5080354;28;20052;-66
2021/04/03 14:30:18;;;;;;;5.93;2.70;;;;;;;;;;5078722;28;20147;-66
2021/04/03 14:32:45;;;;;;;5.90;2.53;;;;;;;;;;5081928;28;20048;-66
2021/04/03 14:35:11;;;;;;;4.80;2.10;;;;;;;;;;5083193;28;20079;-66
2021/04/03 14:37:37;;;;;;;3.60;1.88;;;;;;;;;;5085058;28;20048;-66
2021/04/03 14:40:05;;;;;;;7.95;2.38;;;;;;;;;;5084134;28;20400;-65
2021/04/03 14:42:31;;;;;;;5.03;2.10;;;;;;;;;;5077865;28;20060;-66